createdAt,value
2018-12-15T00:00:40.104Z,1.40
2018-12-15T00:03:08.584Z,1.40
2018-12-15T00:05:37.064Z,1.40
2018-12-15T00:08:05.637Z,1.50
2018-12-15T00:10:34.057Z,1.30
2018-12-15T00:13:02.530Z,1.40
2018-12-15T00:15:31.296Z,1.40
2018-12-15T00:17:59.995Z,1.50
2018-12-15T00:20:28.584Z,1.60
2018-12-15T00:22:57.235Z,1.60
2018-12-15T00:25:25.837Z,1.50
2018-12-15T00:27:54.356Z,1.50
2018-12-15T00:30:23.336Z,1.50
2018-12-15T00:32:51.805Z,1.50
2018-12-15T00:35:20.794Z,1.50
2018-12-15T00:37:49.198Z,1.50
2018-12-15T00:40:17.551Z,1.60
2018-12-15T00:42:46.659Z,1.40
2018-12-15T00:45:15.097Z,1.40
2018-12-15T00:47:43.587Z,1.50
2018-12-15T00:50:12.047Z,1.50
2018-12-15T00:52:40.457Z,1.50
2018-12-15T00:55:08.940Z,1.50
2018-12-15T00:57:37.279Z,1.40
2018-12-15T01:00:06.008Z,1.30
2018-12-15T01:02:34.691Z,1.40
2018-12-15T01:05:03.210Z,1.50
2018-12-15T01:07:31.898Z,1.60
2018-12-15T01:10:00.356Z,1.60
2018-12-15T01:12:29.602Z,1.60
2018-12-15T01:14:57.999Z,1.40
2018-12-15T01:17:26.366Z,1.30
2018-12-15T01:19:55.127Z,1.30
2018-12-15T01:22:23.765Z,1.30
2018-12-15T01:24:52.432Z,1.40
2018-12-15T01:27:20.935Z,1.30
2018-12-15T01:29:49.661Z,1.40
2018-12-15T01:32:18.945Z,1.40
2018-12-15T01:34:48.055Z,1.40
2018-12-15T01:37:16.506Z,1.40
2018-12-15T01:39:45.079Z,1.40
2018-12-15T01:42:13.599Z,1.40
2018-12-15T01:44:42.133Z,1.40
2018-12-15T01:47:10.592Z,1.50
2018-12-15T01:49:39.212Z,1.50
2018-12-15T01:52:07.910Z,1.40
2018-12-15T01:54:36.345Z,1.40
2018-12-15T01:57:05.080Z,1.40
2018-12-15T01:59:33.443Z,1.50
2018-12-15T02:02:02.010Z,1.60
2018-12-15T02:04:30.379Z,1.60
2018-12-15T02:06:59.003Z,1.60
2018-12-15T02:09:27.460Z,1.50
2018-12-15T02:11:56.072Z,1.50
2018-12-15T02:14:24.440Z,1.50
2018-12-15T02:16:53.022Z,1.50
2018-12-15T02:19:21.700Z,1.40
2018-12-15T02:21:50.096Z,1.50
2018-12-15T02:24:18.475Z,1.40
2018-12-15T02:26:47.131Z,1.40
2018-12-15T02:29:16.599Z,1.30
2018-12-15T02:31:45.677Z,1.10
2018-12-15T02:34:14.077Z,1.10
2018-12-15T02:36:43.158Z,1.10
2018-12-15T02:39:11.894Z,1.30
2018-12-15T02:41:47.011Z,1.20
2018-12-15T02:44:11.327Z,1.20
2018-12-15T02:46:39.709Z,1.20
2018-12-15T02:49:08.908Z,1.20
2018-12-15T02:51:37.901Z,1.20
2018-12-15T02:54:07.111Z,1.30
2018-12-15T02:56:35.487Z,1.30
2018-12-15T02:59:04.046Z,1.30
2018-12-15T03:01:32.511Z,1.20
2018-12-15T03:04:01.629Z,1.20
2018-12-15T03:06:30.146Z,1.10
2018-12-15T03:08:58.727Z,1.10
2018-12-15T03:11:27.412Z,1.00
2018-12-15T03:13:55.759Z,1.20
2018-12-15T03:16:24.701Z,1.30
2018-12-15T03:18:53.407Z,1.30
2018-12-15T03:21:21.916Z,1.30
2018-12-15T03:23:50.291Z,1.20
2018-12-15T03:26:18.660Z,1.20
2018-12-15T03:28:47.036Z,1.20
2018-12-15T03:31:15.398Z,1.30
2018-12-15T03:33:43.857Z,1.20
2018-12-15T03:36:12.843Z,1.20
2018-12-15T03:38:41.368Z,1.10
2018-12-15T03:41:09.997Z,1.20
2018-12-15T03:43:38.691Z,1.20
2018-12-15T03:46:07.712Z,1.20
2018-12-15T03:48:36.063Z,1.20
2018-12-15T03:51:04.758Z,1.20
2018-12-15T03:53:33.403Z,1.30
2018-12-15T03:56:01.862Z,1.40
2018-12-15T03:58:30.315Z,1.50
2018-12-15T04:00:58.832Z,1.40
2018-12-15T04:03:27.435Z,1.40
2018-12-15T04:05:55.815Z,1.30
2018-12-15T04:08:24.179Z,1.30
2018-12-15T04:10:52.858Z,1.40
2018-12-15T04:13:21.562Z,1.30
2018-12-15T04:15:50.040Z,1.20
2018-12-15T04:18:18.688Z,1.10
2018-12-15T04:20:47.292Z,1.10
2018-12-15T04:23:15.785Z,1.20
2018-12-15T04:25:44.731Z,1.20
2018-12-15T04:28:13.123Z,1.30
2018-12-15T04:30:41.523Z,1.40
2018-12-15T04:33:10.618Z,1.30
2018-12-15T04:35:39.008Z,1.40
2018-12-15T04:38:08.189Z,1.40
2018-12-15T04:40:37.564Z,1.20
2018-12-15T04:43:06.481Z,1.30
2018-12-15T04:45:35.090Z,1.10
2018-12-15T04:48:10.668Z,1.20
2018-12-15T04:50:33.846Z,1.20
2018-12-15T04:53:02.411Z,1.30
2018-12-15T04:55:31.322Z,1.30
2018-12-15T04:57:59.963Z,1.30
2018-12-15T05:00:28.527Z,1.40
2018-12-15T05:02:57.527Z,1.40
2018-12-15T05:05:25.958Z,1.30
2018-12-15T05:07:54.376Z,1.40
2018-12-15T05:10:22.919Z,1.30
2018-12-15T05:12:51.875Z,1.40
2018-12-15T05:15:20.986Z,1.40
2018-12-15T05:17:49.364Z,1.30
2018-12-15T05:20:17.759Z,1.30
2018-12-15T05:22:46.139Z,1.30
2018-12-15T05:25:15.196Z,1.30
2018-12-15T05:27:44.153Z,1.20
2018-12-15T05:30:13.324Z,1.30
2018-12-15T05:32:41.765Z,1.30
2018-12-15T05:35:10.943Z,1.30
2018-12-15T05:37:39.306Z,1.40
2018-12-15T05:40:08.035Z,1.40
2018-12-15T05:42:36.421Z,1.30
2018-12-15T05:45:06.716Z,1.40
2018-12-15T05:47:35.197Z,1.30
2018-12-15T05:50:04.508Z,1.30
2018-12-15T05:52:33.143Z,1.30
2018-12-15T05:55:01.736Z,1.20
2018-12-15T05:57:30.230Z,1.20
2018-12-15T05:59:58.622Z,1.30
2018-12-15T06:02:27.979Z,1.30
2018-12-15T06:04:57.030Z,1.40
2018-12-15T06:07:25.521Z,1.50
2018-12-15T06:09:53.923Z,1.50
2018-12-15T06:12:22.584Z,1.40
2018-12-15T06:14:51.176Z,1.50
2018-12-15T06:17:19.928Z,1.20
2018-12-15T06:19:48.288Z,1.30
2018-12-15T06:22:16.703Z,1.40
2018-12-15T06:24:45.215Z,1.50
2018-12-15T06:27:14.503Z,1.40
2018-12-15T06:29:43.090Z,1.30
2018-12-15T06:32:11.665Z,1.40
2018-12-15T06:34:40.157Z,1.40
2018-12-15T06:37:10.465Z,1.50
2018-12-15T06:39:39.058Z,1.40
2018-12-15T06:42:07.467Z,1.40
2018-12-15T06:44:35.911Z,1.40
2018-12-15T06:47:04.842Z,1.40
2018-12-15T06:49:34.068Z,1.40
2018-12-15T06:52:02.712Z,1.30
2018-12-15T06:54:31.935Z,1.40
2018-12-15T06:57:00.345Z,1.40
2018-12-15T06:59:28.832Z,1.50
2018-12-15T07:01:57.517Z,1.50
2018-12-15T07:04:28.849Z,1.50
2018-12-15T07:06:57.445Z,1.40
2018-12-15T07:09:25.952Z,1.30
2018-12-15T07:11:54.368Z,1.30
2018-12-15T07:14:23.556Z,1.30
2018-12-15T07:16:52.047Z,1.30
2018-12-15T07:19:20.579Z,1.30
2018-12-15T07:21:49.323Z,1.40
2018-12-15T07:24:18.588Z,1.40
2018-12-15T07:26:47.166Z,1.50
2018-12-15T07:29:15.829Z,1.50
2018-12-15T07:31:44.383Z,1.50
2018-12-15T07:34:12.979Z,1.70
2018-12-15T07:36:42.329Z,1.50
2018-12-15T07:39:10.784Z,1.50
2018-12-15T07:41:39.328Z,1.60
2018-12-15T07:44:08.067Z,1.60
2018-12-15T07:46:36.513Z,1.50
2018-12-15T07:49:05.096Z,1.60
2018-12-15T07:51:34.069Z,1.50
2018-12-15T07:54:02.491Z,1.60
2018-12-15T07:56:31.120Z,1.60
2018-12-15T07:58:59.686Z,1.60
2018-12-15T08:01:28.720Z,1.60
2018-12-15T08:03:57.422Z,1.60
2018-12-15T08:06:26.455Z,1.70
2018-12-15T08:08:55.385Z,1.70
2018-12-15T08:11:29.955Z,1.70
2018-12-15T08:14:05.394Z,1.80
2018-12-15T08:16:33.887Z,1.70
2018-12-15T08:19:02.698Z,1.70
2018-12-15T08:21:31.567Z,1.80
2018-12-15T08:23:59.994Z,1.70
2018-12-15T08:26:28.744Z,1.70
2018-12-15T08:28:57.396Z,1.90
2018-12-15T08:31:25.868Z,1.80
2018-12-15T08:33:54.440Z,1.70
2018-12-15T08:36:23.029Z,1.70
2018-12-15T08:38:51.586Z,1.60
2018-12-15T08:41:20.205Z,1.70
2018-12-15T08:43:48.643Z,1.70
2018-12-15T08:46:18.331Z,1.60
2018-12-15T08:48:46.850Z,1.60
2018-12-15T08:51:15.568Z,1.70
2018-12-15T08:53:44.814Z,1.60
2018-12-15T08:56:14.155Z,1.70
2018-12-15T08:58:42.576Z,1.60
2018-12-15T09:01:11.096Z,1.70
2018-12-15T09:03:39.777Z,1.60
2018-12-15T09:06:09.198Z,1.60
2018-12-15T09:08:38.049Z,1.70
2018-12-15T09:11:06.617Z,1.70
2018-12-15T09:13:35.260Z,1.80
2018-12-15T09:16:03.651Z,1.80
2018-12-15T09:18:33.400Z,1.70
2018-12-15T09:21:02.005Z,1.70
2018-12-15T09:23:30.536Z,1.60
2018-12-15T09:25:59.052Z,1.70
2018-12-15T09:28:27.647Z,1.80
2018-12-15T09:30:56.149Z,1.80
2018-12-15T09:33:24.940Z,1.70
2018-12-15T09:35:53.439Z,1.80
2018-12-15T09:38:22.431Z,1.70
2018-12-15T09:40:51.628Z,1.70
2018-12-15T09:43:20.152Z,1.80
2018-12-15T09:45:48.661Z,1.80
2018-12-15T09:48:17.679Z,1.80
2018-12-15T09:50:46.688Z,2.00
2018-12-15T09:53:15.935Z,1.90
2018-12-15T09:55:45.427Z,1.90
2018-12-15T09:58:13.969Z,2.00
2018-12-15T10:00:42.606Z,1.90
2018-12-15T10:03:11.176Z,2.00
2018-12-15T10:05:39.944Z,1.90
2018-12-15T10:08:08.392Z,1.80
2018-12-15T10:10:37.136Z,1.90
2018-12-15T10:13:05.704Z,1.80
2018-12-15T10:15:34.260Z,1.80
2018-12-15T10:18:02.652Z,1.90
2018-12-15T10:20:31.309Z,1.90
2018-12-15T10:23:00.194Z,2.00
2018-12-15T10:25:28.892Z,2.00
2018-12-15T10:27:57.351Z,2.10
2018-12-15T10:30:31.353Z,2.10
2018-12-15T10:32:59.828Z,2.00
2018-12-15T10:35:28.246Z,2.00
2018-12-15T10:37:56.724Z,2.10
2018-12-15T10:40:25.321Z,2.00
2018-12-15T10:42:54.014Z,2.10
2018-12-15T10:45:22.457Z,2.00
2018-12-15T10:47:51.078Z,2.10
2018-12-15T10:50:19.613Z,2.00
2018-12-15T10:52:48.240Z,2.00
2018-12-15T10:55:16.696Z,1.80
2018-12-15T10:57:45.092Z,1.90
2018-12-15T11:01:18.577Z,1.80
2018-12-15T11:03:46.997Z,1.80
2018-12-15T11:06:15.572Z,1.80
2018-12-15T11:08:43.969Z,1.70
2018-12-15T11:11:12.391Z,1.80
2018-12-15T11:13:40.905Z,1.80
2018-12-15T11:16:09.408Z,1.90
2018-12-15T11:18:37.811Z,1.80
2018-12-15T11:21:06.255Z,1.80
2018-12-15T11:23:34.822Z,1.80
2018-12-15T11:26:03.221Z,1.60
2018-12-15T11:28:32.002Z,1.70
2018-12-15T11:31:00.733Z,1.70
2018-12-15T11:33:29.153Z,1.70
2018-12-15T11:35:57.864Z,1.70
2018-12-15T11:38:26.360Z,1.70
2018-12-15T11:40:54.885Z,1.80
2018-12-15T11:43:23.622Z,1.90
2018-12-15T11:45:52.060Z,1.80
2018-12-15T11:48:20.456Z,2.00
2018-12-15T11:50:49.027Z,1.90
2018-12-15T11:53:17.545Z,2.00
2018-12-15T11:55:46.100Z,2.00
2018-12-15T11:58:15.287Z,2.00
2018-12-15T12:00:43.744Z,2.00
2018-12-15T12:03:12.140Z,2.00
2018-12-15T12:05:40.527Z,1.90
2018-12-15T12:08:09.009Z,2.10
2018-12-15T12:10:38.290Z,2.10
2018-12-15T12:13:07.432Z,2.00
2018-12-15T12:15:35.816Z,1.90
2018-12-15T12:18:04.352Z,2.00
2018-12-15T12:20:34.113Z,2.00
2018-12-15T12:23:02.899Z,1.90
2018-12-15T12:25:31.292Z,2.00
2018-12-15T12:27:59.669Z,2.00
2018-12-15T12:30:28.268Z,1.90
2018-12-15T12:32:59.310Z,1.90
2018-12-15T12:35:27.100Z,2.00
2018-12-15T12:37:55.787Z,1.90
2018-12-15T12:40:24.303Z,1.90
2018-12-15T12:42:53.153Z,2.00
2018-12-15T12:45:21.948Z,1.90
2018-12-15T12:47:50.844Z,2.00
2018-12-15T12:50:19.389Z,2.00
2018-12-15T12:52:47.977Z,2.00
2018-12-15T12:55:16.920Z,2.00
2018-12-15T12:57:45.415Z,2.00
2018-12-15T13:00:14.545Z,2.00
2018-12-15T13:02:43.063Z,2.00
2018-12-15T13:05:11.537Z,2.10
2018-12-15T13:07:41.170Z,2.00
2018-12-15T13:10:11.148Z,2.10
2018-12-15T13:12:39.675Z,2.10
2018-12-15T13:15:08.850Z,2.10
2018-12-15T13:17:37.340Z,2.00
2018-12-15T13:20:06.624Z,2.10
2018-12-15T13:22:35.291Z,2.10
2018-12-15T13:25:04.108Z,1.90
2018-12-15T13:27:33.236Z,2.00
2018-12-15T13:30:02.291Z,2.10
2018-12-15T13:32:31.716Z,2.10
2018-12-15T13:35:00.375Z,2.10
2018-12-15T13:37:34.823Z,2.00
2018-12-15T13:40:04.108Z,1.90
2018-12-15T13:42:33.373Z,1.90
2018-12-15T13:45:01.807Z,1.90
2018-12-15T13:47:31.105Z,2.00
2018-12-15T13:49:59.664Z,2.00
2018-12-15T13:52:28.788Z,1.90
2018-12-15T13:54:57.800Z,1.70
2018-12-15T13:57:26.312Z,1.60
2018-12-15T13:59:54.945Z,1.70
2018-12-15T14:02:23.492Z,1.70
2018-12-15T14:04:52.911Z,1.80
2018-12-15T14:07:21.544Z,1.80
2018-12-15T14:09:50.132Z,1.90
2018-12-15T14:12:19.691Z,1.90
2018-12-15T14:14:48.482Z,1.90
2018-12-15T14:17:17.081Z,1.80
2018-12-15T14:19:45.583Z,1.90
2018-12-15T14:22:14.189Z,1.90
2018-12-15T14:24:42.797Z,1.90
2018-12-15T14:27:11.572Z,1.90
2018-12-15T14:29:39.996Z,1.90
2018-12-15T14:32:08.563Z,1.90
2018-12-15T14:34:37.083Z,1.90
2018-12-15T14:37:05.699Z,1.90
2018-12-15T14:39:34.322Z,1.90
2018-12-15T14:42:02.855Z,1.90
2018-12-15T14:44:32.019Z,2.00
2018-12-15T14:47:00.964Z,1.90
2018-12-15T14:49:30.226Z,1.80
2018-12-15T14:51:59.520Z,1.70
2018-12-15T14:54:27.983Z,1.70
2018-12-15T14:56:56.480Z,1.80
2018-12-15T14:59:25.131Z,1.70
2018-12-15T15:01:53.566Z,1.60
2018-12-15T15:04:22.188Z,1.70
2018-12-15T15:06:50.691Z,1.60
2018-12-15T15:09:19.302Z,1.70
2018-12-15T15:11:47.980Z,1.70
2018-12-15T15:14:16.542Z,1.70
2018-12-15T15:16:45.070Z,1.70
2018-12-15T15:19:14.436Z,1.80
2018-12-15T15:21:42.936Z,1.80
2018-12-15T15:24:11.965Z,1.90
2018-12-15T15:26:40.479Z,1.80
2018-12-15T15:29:09.154Z,1.90
2018-12-15T15:31:37.643Z,1.80
2018-12-15T15:34:06.067Z,1.80
2018-12-15T15:36:34.644Z,1.90
2018-12-15T15:39:03.865Z,1.90
2018-12-15T15:41:32.661Z,2.00
2018-12-15T15:44:01.252Z,1.90
2018-12-15T15:46:29.677Z,1.80
2018-12-15T15:48:58.088Z,1.70
2018-12-15T15:51:26.689Z,1.70
2018-12-15T15:53:55.573Z,1.80
2018-12-15T15:56:25.365Z,1.80
2018-12-15T15:58:53.789Z,1.90
2018-12-15T16:01:22.904Z,1.90
2018-12-15T16:03:52.036Z,1.80
2018-12-15T16:06:21.326Z,1.80
2018-12-15T16:08:50.001Z,1.80
2018-12-15T16:11:18.804Z,1.80
2018-12-15T16:13:47.272Z,1.80
2018-12-15T16:16:38.429Z,1.80
2018-12-15T16:19:07.126Z,1.90
2018-12-15T16:21:36.386Z,1.90
2018-12-15T16:24:05.005Z,1.80
2018-12-15T16:26:33.687Z,1.80
2018-12-15T16:29:02.516Z,1.70
2018-12-15T16:31:31.530Z,1.60
2018-12-15T16:34:00.167Z,1.70
2018-12-15T16:36:28.725Z,1.80
2018-12-15T16:38:58.042Z,1.80
2018-12-15T16:41:27.180Z,1.80
2018-12-15T16:43:55.581Z,1.90
2018-12-15T16:46:24.786Z,1.90
2018-12-15T16:48:53.212Z,1.80
2018-12-15T16:51:21.844Z,1.80
2018-12-15T16:53:50.943Z,1.80
2018-12-15T16:56:34.461Z,1.70
2018-12-15T16:59:03.127Z,1.70
2018-12-15T17:01:32.023Z,1.70
2018-12-15T17:04:00.441Z,1.70
2018-12-15T17:06:29.032Z,1.60
2018-12-15T17:08:58.104Z,1.50
2018-12-15T17:11:26.833Z,1.50
2018-12-15T17:13:55.857Z,1.40
2018-12-15T17:16:24.417Z,1.40
2018-12-15T17:18:53.254Z,1.50
2018-12-15T17:21:21.993Z,1.60
2018-12-15T17:23:50.545Z,1.50
2018-12-15T17:26:19.075Z,1.40
2018-12-15T17:28:47.629Z,1.30
2018-12-15T17:31:16.132Z,1.30
2018-12-15T17:33:44.555Z,1.20
2018-12-15T17:36:13.524Z,1.10
2018-12-15T17:38:42.107Z,1.20
2018-12-15T17:41:10.962Z,1.00
2018-12-15T17:43:39.550Z,1.10
2018-12-15T17:46:08.330Z,1.20
2018-12-15T17:48:36.936Z,1.30
2018-12-15T17:51:06.099Z,1.30
2018-12-15T17:53:34.533Z,1.30
2018-12-15T17:56:02.959Z,1.30
2018-12-15T17:58:31.380Z,1.20
2018-12-15T18:01:00.040Z,1.20
2018-12-15T18:03:28.581Z,1.20
2018-12-15T18:05:57.537Z,1.20
2018-12-15T18:08:26.880Z,1.00
2018-12-15T18:10:55.270Z,1.00
2018-12-15T18:13:24.208Z,0.80
2018-12-15T18:15:52.579Z,0.90
2018-12-15T18:18:21.237Z,0.90
2018-12-15T18:20:49.785Z,0.80
2018-12-15T18:23:18.333Z,0.90
2018-12-15T18:25:47.505Z,0.90
2018-12-15T18:28:17.020Z,0.90
2018-12-15T18:30:45.815Z,0.90
2018-12-15T18:33:14.224Z,0.90
2018-12-15T18:35:42.624Z,0.90
2018-12-15T18:38:11.153Z,0.80
2018-12-15T18:40:39.846Z,0.90
2018-12-15T18:43:08.215Z,0.90
2018-12-15T18:45:36.836Z,0.90
2018-12-15T18:48:05.321Z,0.80
2018-12-15T18:50:33.916Z,0.80
2018-12-15T18:53:02.322Z,0.90
2018-12-15T18:55:31.122Z,0.80
2018-12-15T18:57:59.621Z,0.70
2018-12-15T19:00:28.072Z,0.70
2018-12-15T19:02:56.572Z,0.70
2018-12-15T19:05:25.044Z,0.70
2018-12-15T19:07:53.419Z,0.60
2018-12-15T19:10:21.838Z,0.60
2018-12-15T19:12:50.935Z,0.60
2018-12-15T19:15:19.348Z,0.40
2018-12-15T19:17:47.908Z,0.30
2018-12-15T19:20:16.546Z,0.40
2018-12-15T19:22:45.121Z,0.30
2018-12-15T19:25:13.895Z,0.30
2018-12-15T19:27:42.306Z,0.30
2018-12-15T19:30:11.301Z,0.40
2018-12-15T19:32:39.799Z,0.30
2018-12-15T19:35:08.538Z,0.30
2018-12-15T19:37:36.995Z,0.30
2018-12-15T19:40:06.268Z,0.30
2018-12-15T19:42:35.031Z,0.30
2018-12-15T19:45:05.829Z,0.30
2018-12-15T19:47:34.338Z,0.20
2018-12-15T19:50:02.977Z,0.20
2018-12-15T19:52:31.561Z,0.20
2018-12-15T19:55:00.878Z,0.20
2018-12-15T19:57:30.261Z,0.10
2018-12-15T19:59:58.678Z,0.10
2018-12-15T20:02:27.501Z,0.10
2018-12-15T20:04:56.301Z,0.10
2018-12-15T20:07:26.186Z,0.20
2018-12-15T20:09:54.969Z,0.10
2018-12-15T20:12:23.668Z,0.10
2018-12-15T20:14:52.158Z,0.10
2018-12-15T20:17:20.721Z,0.00
2018-12-15T20:19:49.195Z,0.00
2018-12-15T20:22:17.619Z,0.00
2018-12-15T20:24:46.816Z,0.00
2018-12-15T20:27:16.716Z,0.00
2018-12-15T20:29:45.989Z,0.00
2018-12-15T20:32:14.436Z,-0.10
2018-12-15T20:34:43.005Z,-0.10
2018-12-15T20:37:11.547Z,-0.20
2018-12-15T20:39:40.137Z,-0.30
2018-12-15T20:42:08.623Z,-0.20
2018-12-15T20:44:41.669Z,-0.10
2018-12-15T20:47:08.020Z,-0.20
2018-12-15T20:49:36.800Z,-0.20
2018-12-15T20:52:05.668Z,-0.30
2018-12-15T20:54:34.761Z,-0.20
2018-12-15T20:57:03.399Z,-0.20
2018-12-15T20:59:32.421Z,-0.30
2018-12-15T21:02:00.983Z,-0.40
2018-12-15T21:04:29.399Z,-0.30
2018-12-15T21:06:58.050Z,-0.30
2018-12-15T21:09:26.723Z,-0.30
2018-12-15T21:11:55.219Z,-0.30
2018-12-15T21:14:23.892Z,-0.30
2018-12-15T21:16:52.603Z,-0.40
2018-12-15T21:19:21.180Z,-0.40
2018-12-15T21:21:49.893Z,-0.40
2018-12-15T21:24:18.547Z,-0.50
2018-12-15T21:26:47.309Z,-0.60
2018-12-15T21:29:15.754Z,-0.60
2018-12-15T21:31:44.820Z,-0.70
2018-12-15T21:34:14.075Z,-0.70
2018-12-15T21:36:42.892Z,-0.80
2018-12-15T21:39:11.379Z,-0.90
2018-12-15T21:41:39.932Z,-0.90
2018-12-15T21:44:08.641Z,-0.90
2018-12-15T21:46:37.212Z,-1.00
2018-12-15T21:49:05.663Z,-0.90
2018-12-15T21:51:35.079Z,-1.00
2018-12-15T21:54:03.677Z,-1.00
2018-12-15T21:56:32.237Z,-0.80
2018-12-15T21:59:00.825Z,-0.90
2018-12-15T22:01:29.368Z,-0.90
2018-12-15T22:03:57.872Z,-0.80
2018-12-15T22:06:26.273Z,-0.70
2018-12-15T22:08:54.732Z,-0.60
2018-12-15T22:11:23.118Z,-0.60
2018-12-15T22:13:52.070Z,-0.50
2018-12-15T22:16:20.730Z,-0.50
2018-12-15T22:19:01.673Z,-0.50
2018-12-15T22:21:30.460Z,-0.50
2018-12-15T22:23:59.091Z,-0.50
2018-12-15T22:26:27.742Z,-0.50
2018-12-15T22:28:56.152Z,-0.60
2018-12-15T22:31:24.681Z,-0.50
2018-12-15T22:33:53.214Z,-0.60
2018-12-15T22:36:22.369Z,-0.60
2018-12-15T22:38:51.011Z,-0.70
2018-12-15T22:41:19.555Z,-0.50
2018-12-15T22:43:48.440Z,-0.50
2018-12-15T22:46:17.098Z,-0.60
2018-12-15T22:48:45.906Z,-0.60
2018-12-15T22:51:14.789Z,-0.50
2018-12-15T22:53:43.430Z,-0.40
2018-12-15T22:56:12.184Z,-0.30
2018-12-15T22:58:40.609Z,-0.40
2018-12-15T23:01:12.763Z,-0.40
2018-12-15T23:03:41.295Z,-0.50
2018-12-15T23:06:10.214Z,-0.40
2018-12-15T23:08:39.344Z,-0.40
2018-12-15T23:11:09.606Z,-0.30
2018-12-15T23:13:38.322Z,-0.30
2018-12-15T23:16:07.453Z,-0.20
2018-12-15T23:18:35.976Z,-0.30
2018-12-15T23:21:05.233Z,-0.20
2018-12-15T23:23:33.751Z,-0.20
2018-12-15T23:26:02.311Z,-0.10
2018-12-15T23:28:30.717Z,-0.10
2018-12-15T23:30:59.136Z,-0.10
2018-12-15T23:33:27.881Z,-0.10
2018-12-15T23:35:57.069Z,-0.20
2018-12-15T23:38:25.596Z,-0.10
2018-12-15T23:40:54.097Z,-0.10
2018-12-15T23:43:22.903Z,-0.10
2018-12-15T23:45:51.449Z,-0.20
2018-12-15T23:48:20.443Z,0.00
2018-12-15T23:50:48.936Z,0.10
2018-12-15T23:53:17.867Z,0.00
2018-12-15T23:55:46.456Z,0.00
2018-12-15T23:58:15.011Z,0.10
